Time;durP1;ratioP1;P1;durP2;ratioP2;P2;SDS_P1;SDS_P2;PMS_P1;PMS_P2;Temp;Humidity;BMP_temperature;BMP_pressure;BME280_temperature;BME280_humidity;BME280_pressure;Samples;Min_cycle;Max_cycle;Signal;HPM_P1;HPM_P2
2022/08/16 00:00:40;;;;;;;20.58;17.60;;;20.80;99.90;;;;;;5079600;28;20466;-69
2022/08/16 00:03:08;;;;;;;20.00;17.60;;;20.90;99.90;;;;;;5073214;28;20082;-68
2022/08/16 00:05:34;;;;;;;21.55;16.92;;;20.80;99.90;;;;;;5081181;28;20083;-68
2022/08/16 00:08:00;;;;;;;20.40;17.80;;;20.70;99.90;;;;;;5080547;28;20044;-68
2022/08/16 00:10:28;;;;;;;21.90;19.50;;;20.30;99.90;;;;;;5074456;28;20028;-68
2022/08/16 00:12:54;;;;;;;24.60;19.20;;;21.10;99.90;;;;;;5073078;28;20059;-68
2022/08/16 00:15:34;;;;;;;22.65;18.30;;;20.90;99.90;;;;;;5074298;28;20127;-68
2022/08/16 00:18:00;;;;;;;22.75;19.35;;;20.50;99.90;;;;;;5072967;28;20052;-68
2022/08/16 00:20:26;;;;;;;22.83;19.83;;;20.50;99.90;;;;;;5074106;28;20044;-68
2022/08/16 00:22:52;;;;;;;19.88;17.75;;;20.60;99.90;;;;;;5082327;28;20067;-69
2022/08/16 00:25:20;;;;;;;26.38;19.70;;;20.70;99.90;;;;;;5077541;28;20495;-68
2022/08/16 00:27:46;;;;;;;24.85;19.75;;;20.50;99.90;;;;;;5082958;28;20032;-68
2022/08/16 00:30:14;;;;;;;23.38;19.98;;;20.70;99.90;;;;;;5093258;28;20405;-68
2022/08/16 00:32:42;;;;;;;22.70;19.45;;;20.70;99.90;;;;;;5077326;28;20044;-68
2022/08/16 00:35:11;;;;;;;24.33;20.67;;;20.50;99.90;;;;;;5072719;28;20036;-68
2022/08/16 00:37:36;;;;;;;23.30;20.00;;;20.50;99.90;;;;;;5072615;28;20041;-68
2022/08/16 00:40:05;;;;;;;26.08;20.63;;;20.50;99.90;;;;;;5072414;28;20044;-68
2022/08/16 00:42:31;;;;;;;24.17;20.70;;;20.70;99.90;;;;;;5072845;28;20119;-68
2022/08/16 00:45:02;;;;;;;24.30;21.50;;;20.70;99.90;;;;;;5075716;28;20124;-68
2022/08/16 00:47:27;;;;;;;22.80;20.40;;;22.10;99.90;;;;;;5087748;28;20058;-68
2022/08/16 00:49:53;;;;;;;29.50;23.00;;;20.60;99.90;;;;;;5073676;28;20526;-68
2022/08/16 00:52:18;;;;;;;24.15;21.67;;;21.10;99.90;;;;;;5076120;28;20048;-68
2022/08/16 00:54:44;;;;;;;23.00;20.45;;;20.40;99.90;;;;;;5085052;28;20046;-69
2022/08/16 00:57:11;;;;;;;24.10;20.40;;;20.40;99.90;;;;;;5073313;28;20033;-68
2022/08/16 00:59:38;;;;;;;30.33;22.10;;;20.50;99.90;;;;;;5079288;28;20040;-68
2022/08/16 01:02:07;;;;;;;24.45;21.90;;;20.50;99.90;;;;;;5080263;28;20033;-68
2022/08/16 01:04:33;;;;;;;22.85;20.42;;;20.30;99.90;;;;;;5073330;28;20547;-69
2022/08/16 01:07:01;;;;;;;22.67;19.65;;;20.60;99.90;;;;;;5073232;28;20040;-68
2022/08/16 01:09:27;;;;;;;23.00;20.20;;;20.30;99.90;;;;;;5086213;28;20051;-68
2022/08/16 01:11:53;;;;;;;22.25;19.83;;;20.30;99.90;;;;;;5082502;28;20040;-68
2022/08/16 01:14:21;;;;;;;25.40;19.75;;;21.90;99.90;;;;;;5077859;28;20256;-68
2022/08/16 01:16:48;;;;;;;21.27;19.08;;;20.20;99.90;;;;;;5072131;28;20492;-68
2022/08/16 01:19:25;;;;;;;21.92;19.58;;;20.10;99.90;;;;;;5073312;28;20140;-68
2022/08/16 01:22:08;;;;;;;23.95;19.05;;;20.20;99.90;;;;;;5072969;28;20040;-68
2022/08/16 01:24:42;;;;;;;25.17;19.92;;;20.30;99.90;;;;;;5087401;28;20414;-68
2022/08/16 01:27:14;;;;;;;22.92;19.65;;;20.40;99.90;;;;;;5080637;28;20123;-68
2022/08/16 01:30:06;;;;;;;24.90;19.92;;;20.30;99.90;;;;;;5075792;28;20076;-68
2022/08/16 01:32:43;;;;;;;26.38;20.75;;;20.50;99.90;;;;;;5073044;28;20380;-68
2022/08/16 01:35:16;;;;;;;30.23;21.98;;;20.20;99.90;;;;;;5076796;28;20046;-68
2022/08/16 01:37:50;;;;;;;25.95;21.95;;;20.30;99.90;;;;;;5082156;28;20047;-68
2022/08/16 01:40:18;;;;;;;26.58;23.77;;;20.60;99.90;;;;;;5071170;28;20086;-68
2022/08/16 01:42:45;;;;;;;31.60;24.10;;;20.50;99.90;;;;;;5072778;28;20040;-68
2022/08/16 01:45:11;;;;;;;31.45;24.15;;;20.60;99.90;;;;;;5088482;28;20093;-68
2022/08/16 01:47:39;;;;;;;25.45;22.75;;;20.20;99.90;;;;;;5075193;28;20433;-68
2022/08/16 01:50:05;;;;;;;25.70;22.83;;;20.30;99.90;;;;;;5083228;28;20047;-68
2022/08/16 01:52:32;;;;;;;28.88;22.88;;;20.20;99.90;;;;;;5072600;28;20040;-68
2022/08/16 01:54:59;;;;;;;26.35;23.65;;;20.00;99.90;;;;;;5071460;28;20048;-68
2022/08/16 01:57:26;;;;;;;28.70;24.55;;;20.20;99.90;;;;;;5071003;28;20041;-68
2022/08/16 01:59:52;;;;;;;27.83;23.35;;;20.10;99.90;;;;;;5072542;28;20067;-68
2022/08/16 02:02:18;;;;;;;33.20;23.73;;;20.10;99.90;;;;;;5071407;28;20479;-68
2022/08/16 02:04:43;;;;;;;27.13;23.20;;;20.20;99.90;;;;;;5071110;28;20072;-68
2022/08/16 02:07:11;;;;;;;26.08;22.58;;;21.30;99.90;;;;;;5070906;28;20044;-68
2022/08/16 02:09:39;;;;;;;27.35;22.55;;;20.30;99.90;;;;;;5072516;28;20037;-68
2022/08/16 02:12:07;;;;;;;25.65;22.67;;;20.30;99.90;;;;;;5072226;28;20036;-68
2022/08/16 02:14:34;;;;;;;27.42;24.45;;;22.30;99.90;;;;;;5071099;28;20486;-68
2022/08/16 02:17:02;;;;;;;27.30;24.42;;;20.20;99.90;;;;;;5071098;28;20084;-68
2022/08/16 02:19:29;;;;;;;32.70;24.10;;;20.00;99.90;;;;;;5087723;28;20055;-68
2022/08/16 02:21:57;;;;;;;27.35;24.38;;;20.00;99.90;;;;;;5081142;28;20055;-68
2022/08/16 02:24:23;;;;;;;31.95;25.35;;;20.30;99.90;;;;;;5073624;28;20482;-68
2022/08/16 02:26:49;;;;;;;32.50;27.30;;;19.90;99.90;;;;;;5091331;28;20104;-68
2022/08/16 02:29:17;;;;;;;30.60;26.45;;;19.70;99.90;;;;;;5076796;28;20041;-68
2022/08/16 02:31:47;;;;;;;30.95;25.52;;;20.00;99.90;;;;;;5072103;28;20406;-69
2022/08/16 02:34:14;;;;;;;33.47;26.30;;;20.10;99.90;;;;;;5071993;28;20032;-70
2022/08/16 02:36:41;;;;;;;32.50;26.30;;;20.00;99.90;;;;;;5070623;28;20044;-68
2022/08/16 02:39:08;;;;;;;31.65;26.88;;;19.70;99.90;;;;;;5079753;28;20393;-68
2022/08/16 02:41:36;;;;;;;26.77;23.45;;;19.60;99.90;;;;;;5077980;28;20043;-68
2022/08/16 02:44:04;;;;;;;27.42;23.65;;;19.70;99.90;;;;;;5085300;28;20032;-68
2022/08/16 02:46:31;;;;;;;31.50;25.20;;;19.40;99.90;;;;;;5079017;28;20040;-68
2022/08/16 02:48:57;;;;;;;30.60;24.17;;;19.70;99.90;;;;;;5071021;28;20037;-70
2022/08/16 02:51:23;;;;;;;29.45;23.42;;;19.50;99.90;;;;;;5070618;28;20044;-68
2022/08/16 02:53:48;;;;;;;31.35;24.73;;;19.80;99.90;;;;;;5070659;28;20135;-68
2022/08/16 02:56:16;;;;;;;29.20;24.80;;;19.50;99.90;;;;;;5070681;28;20041;-68
2022/08/16 02:58:48;;;;;;;28.58;24.48;;;19.70;99.90;;;;;;5070645;28;20114;-68
2022/08/16 03:01:17;;;;;;;29.20;25.92;;;19.60;99.90;;;;;;5070271;28;20041;-68
2022/08/16 03:03:43;;;;;;;32.95;26.80;;;19.50;99.90;;;;;;5071882;28;20038;-68
2022/08/16 03:06:09;;;;;;;30.38;24.48;;;21.00;99.90;;;;;;5072047;28;20040;-68
2022/08/16 03:08:34;;;;;;;26.08;22.50;;;19.50;99.90;;;;;;5072025;28;20101;-68
2022/08/16 03:11:00;;;;;;;30.10;24.98;;;19.50;99.90;;;;;;5086009;28;20060;-68
2022/08/16 03:13:26;;;;;;;27.83;24.15;;;19.30;99.90;;;;;;5070854;28;20098;-68
2022/08/16 03:15:52;;;;;;;27.02;23.13;;;19.20;99.90;;;;;;5085644;28;20033;-68
2022/08/16 03:18:17;;;;;;;25.67;21.42;;;19.20;99.90;;;;;;5071612;28;20089;-68
2022/08/16 03:20:43;;;;;;;22.38;19.90;;;19.40;99.90;;;;;;5071394;28;20036;-68
2022/08/16 03:23:09;;;;;;;25.63;21.48;;;19.40;99.90;;;;;;5080845;28;20040;-68
2022/08/16 03:25:36;;;;;;;25.63;22.92;;;18.90;99.90;;;;;;5070479;28;20089;-68
2022/08/16 03:28:03;;;;;;;23.95;21.45;;;18.90;99.90;;;;;;5084491;28;20089;-68
2022/08/16 03:30:31;;;;;;;23.40;20.67;;;18.80;99.90;;;;;;5070041;28;20051;-68
2022/08/16 03:32:57;;;;;;;26.17;22.60;;;18.80;99.90;;;;;;5083753;28;20105;-68
2022/08/16 03:35:25;;;;;;;28.65;24.50;;;18.80;99.90;;;;;;5071093;28;20123;-68
2022/08/16 03:37:57;;;;;;;35.30;25.90;;;19.00;99.90;;;;;;5073823;28;20051;-68
2022/08/16 03:40:24;;;;;;;30.45;25.70;;;19.00;99.90;;;;;;5074918;28;20048;-68
2022/08/16 03:42:49;;;;;;;28.58;22.77;;;18.90;99.90;;;;;;5086126;28;20125;-68
2022/08/16 03:45:15;;;;;;;24.83;22.17;;;19.10;99.90;;;;;;5091901;28;20502;-68
2022/08/16 03:47:41;;;;;;;28.08;23.20;;;18.80;99.90;;;;;;5092138;28;20036;-68
2022/08/16 03:50:07;;;;;;;26.92;23.88;;;18.80;99.90;;;;;;5092905;28;20129;-68
2022/08/16 03:52:34;;;;;;;25.65;22.55;;;19.70;99.90;;;;;;5074858;28;20078;-68
2022/08/16 03:55:01;;;;;;;26.27;21.80;;;18.80;99.90;;;;;;5073700;28;20040;-68
2022/08/16 03:57:28;;;;;;;25.75;21.83;;;18.60;99.90;;;;;;5073323;28;20119;-68
2022/08/16 03:59:54;;;;;;;25.60;22.83;;;18.70;99.90;;;;;;5086290;28;20452;-68
2022/08/16 04:02:20;;;;;;;25.00;21.33;;;18.70;99.90;;;;;;5075781;28;20045;-68
2022/08/16 04:04:45;;;;;;;23.42;20.85;;;18.70;99.90;;;;;;5074760;28;20036;-68
2022/08/16 04:07:11;;;;;;;23.25;20.55;;;19.00;99.90;;;;;;5075024;28;20041;-68
2022/08/16 04:09:37;;;;;;;26.70;21.60;;;19.70;99.90;;;;;;5086730;28;20076;-68
2022/08/16 04:12:07;;;;;;;26.85;21.20;;;18.90;99.90;;;;;;5073130;28;20049;-68
2022/08/16 04:14:33;;;;;;;25.55;21.30;;;18.70;99.90;;;;;;5056645;28;20044;-68
2022/08/16 04:16:59;;;;;;;28.50;21.15;;;18.90;99.90;;;;;;5073421;28;20545;-68
2022/08/16 04:19:26;;;;;;;26.77;20.83;;;18.80;99.90;;;;;;5077606;28;20123;-68
2022/08/16 04:21:52;;;;;;;22.35;19.67;;;18.70;99.90;;;;;;5083690;28;20560;-68
2022/08/16 04:24:18;;;;;;;22.55;20.20;;;18.90;99.90;;;;;;5074310;28;20558;-68
2022/08/16 04:26:44;;;;;;;25.80;20.45;;;18.70;99.90;;;;;;5072740;28;20116;-68
2022/08/16 04:29:10;;;;;;;23.40;19.45;;;18.60;99.90;;;;;;5072607;28;20052;-68
2022/08/16 04:31:35;;;;;;;24.67;20.52;;;18.80;99.90;;;;;;5074121;28;20501;-68
2022/08/16 04:34:01;;;;;;;30.10;20.55;;;18.70;99.90;;;;;;5074366;28;20044;-68
2022/08/16 04:36:27;;;;;;;25.40;19.50;;;18.50;99.90;;;;;;5072832;28;20071;-68
2022/08/16 04:38:53;;;;;;;22.25;19.75;;;18.60;99.90;;;;;;5072845;28;20505;-68
2022/08/16 04:41:20;;;;;;;26.33;19.88;;;18.60;99.90;;;;;;5072620;28;20058;-68
2022/08/16 04:43:46;;;;;;;26.35;20.10;;;18.60;99.90;;;;;;5078525;28;20036;-67
2022/08/16 04:46:13;;;;;;;25.05;19.90;;;18.70;99.90;;;;;;5087182;28;20039;-68
2022/08/16 04:48:40;;;;;;;26.90;21.15;;;18.70;99.90;;;;;;5073785;28;20575;-68
2022/08/16 04:51:06;;;;;;;28.38;20.83;;;18.80;99.90;;;;;;5072282;28;20494;-68
2022/08/16 04:53:32;;;;;;;31.10;22.48;;;18.90;99.90;;;;;;5074898;28;20036;-68
2022/08/16 04:55:58;;;;;;;23.90;21.27;;;18.80;99.90;;;;;;5086391;28;20039;-71
2022/08/16 04:58:24;;;;;;;25.83;20.85;;;18.90;99.90;;;;;;5085568;28;20112;-68
2022/08/16 05:00:50;;;;;;;25.85;21.33;;;18.80;99.90;;;;;;5088138;28;20075;-68
2022/08/16 05:03:15;;;;;;;27.88;21.90;;;18.80;99.90;;;;;;5073367;28;20040;-67
2022/08/16 05:05:41;;;;;;;26.48;21.45;;;18.90;99.90;;;;;;5072185;28;20383;-68
2022/08/16 05:08:08;;;;;;;24.80;20.60;;;18.90;99.90;;;;;;5073394;28;20037;-68
2022/08/16 05:10:34;;;;;;;24.88;21.58;;;19.10;99.90;;;;;;5072171;28;20044;-68
2022/08/16 05:13:01;;;;;;;27.60;21.50;;;19.00;99.90;;;;;;5072960;28;20036;-68
2022/08/16 05:15:27;;;;;;;27.92;22.05;;;18.90;99.90;;;;;;5073191;28;20049;-67
2022/08/16 05:17:54;;;;;;;28.77;21.38;;;19.10;99.90;;;;;;5071859;28;20044;-68
2022/08/16 05:20:20;;;;;;;25.50;21.90;;;21.10;99.90;;;;;;5071824;28;20087;-67
2022/08/16 05:22:46;;;;;;;25.30;21.80;;;18.80;99.90;;;;;;5072949;28;20116;-68
2022/08/16 05:25:12;;;;;;;26.35;20.08;;;19.00;99.90;;;;;;5072996;28;20141;-68
2022/08/16 05:27:39;;;;;;;23.15;20.45;;;19.00;99.90;;;;;;5072679;28;20041;-67
2022/08/16 05:30:06;;;;;;;25.25;21.02;;;20.80;99.90;;;;;;5071698;28;20048;-67
2022/08/16 05:32:33;;;;;;;25.10;20.33;;;18.80;99.90;;;;;;5086186;28;20069;-67
2022/08/16 05:34:59;;;;;;;28.05;20.42;;;19.00;99.90;;;;;;5086604;28;20078;-68
2022/08/16 05:37:24;;;;;;;25.15;19.85;;;19.00;99.90;;;;;;5072794;28;20036;-68
2022/08/16 05:39:51;;;;;;;25.67;20.38;;;18.80;99.90;;;;;;5071174;28;20094;-68
2022/08/16 05:42:16;;;;;;;25.92;19.75;;;18.90;99.90;;;;;;5071181;28;20443;-68
2022/08/16 05:44:42;;;;;;;21.48;19.27;;;18.80;99.90;;;;;;5072738;28;20039;-67
2022/08/16 05:47:07;;;;;;;22.10;19.70;;;19.00;99.90;;;;;;5076880;28;20078;-67
2022/08/16 05:49:34;;;;;;;22.90;19.45;;;19.00;99.90;;;;;;5071540;28;20040;-67
2022/08/16 05:52:00;;;;;;;21.40;18.33;;;19.10;99.90;;;;;;5072302;28;20052;-68
2022/08/16 05:54:27;;;;;;;24.38;18.45;;;19.10;99.90;;;;;;5071264;28;20081;-68
2022/08/16 05:56:55;;;;;;;25.73;19.70;;;19.30;99.90;;;;;;5072151;28;20494;-68
2022/08/16 05:59:20;;;;;;;22.73;18.25;;;19.30;99.90;;;;;;5070492;28;20059;-67
2022/08/16 06:01:49;;;;;;;22.15;19.42;;;19.50;99.90;;;;;;5072487;28;20427;-68
2022/08/16 06:04:15;;;;;;;22.50;18.63;;;19.20;99.90;;;;;;5072446;28;20095;-68
2022/08/16 06:06:43;;;;;;;21.00;17.92;;;19.30;99.90;;;;;;5082723;28;20079;-68
2022/08/16 06:09:09;;;;;;;21.80;17.88;;;19.40;99.90;;;;;;5073128;28;20490;-68
2022/08/16 06:11:35;;;;;;;20.33;16.58;;;20.00;99.90;;;;;;5072234;28;20063;-68
2022/08/16 06:14:02;;;;;;;21.20;16.60;;;20.30;99.90;;;;;;5071082;28;20040;-68
2022/08/16 06:16:27;;;;;;;21.58;16.67;;;20.90;99.90;;;;;;5071053;28;20041;-68
2022/08/16 06:18:53;;;;;;;19.00;15.25;;;21.60;99.90;;;;;;5071059;28;20094;-70
2022/08/16 06:21:19;;;;;;;22.10;15.90;;;21.90;99.90;;;;;;5072051;28;20142;-68
2022/08/16 06:23:44;;;;;;;18.50;14.48;;;22.30;99.90;;;;;;5070996;28;20041;-68
2022/08/16 06:26:10;;;;;;;18.42;15.02;;;22.90;99.90;;;;;;5075985;28;20039;-68
2022/08/16 06:28:36;;;;;;;19.00;15.40;;;23.20;99.90;;;;;;5081118;28;20032;-68
2022/08/16 06:31:02;;;;;;;16.48;13.73;;;23.70;99.90;;;;;;5070800;28;20040;-68
2022/08/16 06:33:28;;;;;;;16.55;14.43;;;23.80;99.90;;;;;;5072333;28;20040;-68
2022/08/16 06:35:55;;;;;;;20.95;14.18;;;23.80;99.90;;;;;;5072050;28;20037;-68
2022/08/16 06:38:21;;;;;;;18.20;14.35;;;25.60;99.90;;;;;;5084817;28;20040;-69
2022/08/16 06:40:48;;;;;;;16.95;13.85;;;24.80;99.90;;;;;;5070604;28;20478;-68
2022/08/16 06:43:13;;;;;;;16.52;12.88;;;25.30;99.90;;;;;;5070618;28;20086;-68
2022/08/16 06:45:39;;;;;;;20.05;13.45;;;26.90;99.90;;;;;;5074671;28;20440;-68
2022/08/16 06:48:05;;;;;;;16.10;13.80;;;25.60;99.90;;;;;;5078314;28;20040;-68
2022/08/16 06:50:31;;;;;;;15.48;13.93;;;25.60;99.90;;;;;;5071918;28;20048;-68
2022/08/16 06:52:58;;;;;;;17.15;13.90;;;25.90;99.90;;;;;;5070582;28;20052;-68
2022/08/16 06:55:23;;;;;;;16.23;13.90;;;26.10;99.90;;;;;;5071746;28;20048;-68
2022/08/16 06:57:51;;;;;;;17.00;13.60;;;26.20;99.90;;;;;;5070654;28;20045;-68
2022/08/16 07:00:17;;;;;;;19.00;13.80;;;26.50;99.90;;;;;;5071807;28;20084;-68
2022/08/16 07:02:43;;;;;;;14.98;12.48;;;26.80;99.90;;;;;;5070885;28;20464;-68
2022/08/16 07:05:11;;;;;;;14.05;12.65;;;26.80;99.90;;;;;;5084991;28;20040;-68
2022/08/16 07:07:37;;;;;;;16.48;13.68;;;27.00;99.90;;;;;;5072765;28;20550;-69
2022/08/16 07:10:05;;;;;;;17.73;12.63;;;26.90;99.90;;;;;;5073325;28;20123;-68
2022/08/16 07:12:31;;;;;;;18.23;13.50;;;26.60;99.90;;;;;;5074255;28;20086;-68
2022/08/16 07:14:56;;;;;;;16.02;13.02;;;27.80;99.90;;;;;;5075818;28;20453;-68
2022/08/16 07:17:23;;;;;;;17.52;14.10;;;27.00;99.90;;;;;;5075345;28;20028;-68
2022/08/16 07:19:49;;;;;;;17.60;14.07;;;24.70;99.90;;;;;;5075218;28;20052;-68
2022/08/16 07:22:16;;;;;;;16.50;13.10;;;24.40;99.90;;;;;;5075314;28;20036;-68
2022/08/16 07:24:44;;;;;;;17.60;14.70;;;23.90;99.90;;;;;;5074061;28;20442;-68
2022/08/16 07:27:10;;;;;;;21.15;14.77;;;24.40;99.90;;;;;;5075544;28;20090;-68
2022/08/16 07:29:37;;;;;;;18.40;14.20;;;23.60;99.90;;;;;;5073995;28;20044;-68
2022/08/16 07:32:03;;;;;;;20.05;15.65;;;23.60;99.90;;;;;;5075221;28;20090;-68
2022/08/16 07:34:29;;;;;;;20.50;15.75;;;23.30;99.90;;;;;;5075055;28;20095;-68
2022/08/16 07:36:55;;;;;;;19.80;15.80;;;23.50;99.90;;;;;;5075032;28;20491;-68
2022/08/16 07:39:20;;;;;;;21.23;15.45;;;23.50;99.90;;;;;;5084669;28;20047;-68
2022/08/16 07:41:46;;;;;;;16.52;14.70;;;23.30;99.90;;;;;;5080890;28;20036;-68
2022/08/16 07:44:12;;;;;;;15.10;13.50;;;23.40;99.90;;;;;;5086838;28;20537;-68
2022/08/16 07:46:37;;;;;;;21.00;14.98;;;23.40;99.90;;;;;;5083917;28;20044;-68
2022/08/16 07:49:03;;;;;;;14.88;12.63;;;24.70;99.90;;;;;;5074954;28;20039;-68
2022/08/16 07:51:33;;;;;;;14.65;11.77;;;23.50;99.90;;;;;;5085985;28;20044;-68
2022/08/16 07:54:01;;;;;;;16.35;12.30;;;23.50;99.90;;;;;;5075643;28;20044;-68
2022/08/16 07:56:27;;;;;;;14.98;12.55;;;25.30;99.90;;;;;;5073863;28;20149;-69
2022/08/16 07:58:53;;;;;;;16.75;13.07;;;23.40;99.90;;;;;;5073546;28;20088;-68
2022/08/16 08:01:21;;;;;;;15.57;11.43;;;23.70;99.90;;;;;;5074438;28;20141;-68
2022/08/16 08:03:47;;;;;;;18.98;13.40;;;24.90;99.90;;;;;;5073221;28;20047;-68
2022/08/16 08:06:13;;;;;;;14.55;12.38;;;23.60;99.90;;;;;;5082331;28;20032;-68
2022/08/16 08:08:41;;;;;;;16.52;11.40;;;23.70;99.90;;;;;;5094749;28;20048;-68
2022/08/16 08:11:07;;;;;;;14.90;12.68;;;23.60;99.90;;;;;;5073257;28;20490;-68
2022/08/16 08:13:33;;;;;;;14.15;11.75;;;23.40;99.90;;;;;;5073584;28;20048;-69
2022/08/16 08:15:58;;;;;;;13.88;11.80;;;23.50;99.90;;;;;;5072958;28;20044;-68
2022/08/16 08:18:24;;;;;;;16.33;13.15;;;23.60;99.90;;;;;;5076625;28;20076;-68
2022/08/16 08:20:50;;;;;;;22.55;13.60;;;24.50;99.90;;;;;;5077481;28;20054;-68
2022/08/16 08:23:17;;;;;;;17.77;12.77;;;23.70;99.90;;;;;;5074039;28;20052;-68
2022/08/16 08:25:44;;;;;;;15.65;11.70;;;23.60;99.90;;;;;;5072997;28;20093;-68
2022/08/16 08:28:12;;;;;;;18.65;13.43;;;25.10;99.90;;;;;;5074288;28;20043;-68
2022/08/16 08:30:37;;;;;;;14.27;12.65;;;23.90;99.90;;;;;;5074109;28;20036;-68
2022/08/16 08:33:03;;;;;;;17.65;12.40;;;23.80;99.90;;;;;;5092825;28;20189;-68
2022/08/16 08:35:31;;;;;;;17.83;14.23;;;24.00;99.90;;;;;;5083440;28;20174;-68
2022/08/16 08:37:56;;;;;;;15.40;12.98;;;24.20;99.90;;;;;;5072772;28;20048;-68
2022/08/16 08:40:24;;;;;;;15.00;12.70;;;24.00;99.90;;;;;;5078891;28;20040;-68
2022/08/16 08:42:51;;;;;;;14.70;11.60;;;24.30;99.90;;;;;;5082985;28;20112;-69
2022/08/16 08:45:17;;;;;;;13.07;11.63;;;24.20;99.90;;;;;;5076343;28;20036;-68
2022/08/16 08:47:46;;;;;;;15.73;12.25;;;24.40;99.90;;;;;;5083065;28;20046;-68
2022/08/16 08:50:15;;;;;;;11.93;10.60;;;24.30;99.90;;;;;;5080050;28;20452;-68
2022/08/16 08:52:43;;;;;;;12.65;11.25;;;24.40;99.90;;;;;;5072696;28;20036;-68
2022/08/16 08:55:11;;;;;;;13.77;11.60;;;24.60;99.90;;;;;;5073645;28;20047;-68
2022/08/16 08:57:42;;;;;;;11.98;10.48;;;24.50;99.90;;;;;;5073312;28;20507;-68
2022/08/16 09:00:11;;;;;;;11.60;9.07;;;24.70;99.90;;;;;;5072009;28;20048;-68
2022/08/16 09:02:37;;;;;;;14.38;11.10;;;24.90;99.90;;;;;;5078483;28;20119;-68
2022/08/16 09:05:03;;;;;;;13.02;10.05;;;26.50;99.90;;;;;;5073206;28;20119;-68
2022/08/16 09:07:28;;;;;;;14.57;10.57;;;24.80;99.90;;;;;;5072310;28;20037;-68
2022/08/16 09:09:54;;;;;;;13.27;11.00;;;26.40;99.90;;;;;;5073177;28;20041;-68
2022/08/16 09:12:19;;;;;;;13.73;11.93;;;26.50;99.90;;;;;;5072951;28;20406;-68
2022/08/16 09:14:45;;;;;;;14.70;10.40;;;25.60;99.90;;;;;;5071899;28;20044;-69
2022/08/16 09:17:11;;;;;;;18.42;12.27;;;25.20;99.90;;;;;;5072047;28;20072;-68
2022/08/16 09:19:37;;;;;;;15.30;11.23;;;25.40;99.90;;;;;;5073023;28;20025;-68
2022/08/16 09:22:04;;;;;;;15.38;10.75;;;25.20;99.90;;;;;;5071545;28;20482;-68
2022/08/16 09:24:31;;;;;;;12.80;11.43;;;25.50;99.90;;;;;;5071898;28;20056;-68
2022/08/16 09:26:56;;;;;;;14.40;11.15;;;25.20;99.90;;;;;;5071011;28;20033;-68
2022/08/16 09:29:22;;;;;;;13.80;10.88;;;25.30;99.90;;;;;;5071055;28;20044;-68
2022/08/16 09:31:48;;;;;;;15.73;12.55;;;25.40;99.90;;;;;;5071991;28;20033;-68
2022/08/16 09:34:14;;;;;;;16.33;11.88;;;25.60;99.90;;;;;;5071747;28;20115;-68
2022/08/16 09:36:39;;;;;;;12.52;9.77;;;25.70;99.90;;;;;;5072849;28;20041;-68
2022/08/16 09:39:05;;;;;;;13.27;9.88;;;27.10;99.90;;;;;;5072582;28;20044;-68
2022/08/16 09:41:31;;;;;;;17.02;12.50;;;27.00;99.90;;;;;;5071800;28;20422;-66
2022/08/16 09:43:58;;;;;;;12.95;10.80;;;25.90;99.90;;;;;;5072160;28;20048;-67
2022/08/16 09:46:24;;;;;;;12.95;8.32;;;26.80;99.90;;;;;;5072106;28;20553;-67
2022/08/16 09:48:51;;;;;;;15.25;11.98;;;25.90;99.90;;;;;;5073546;28;20509;-67
2022/08/16 09:51:17;;;;;;;19.65;12.25;;;26.10;99.90;;;;;;5080722;28;20068;-66
2022/08/16 09:53:44;;;;;;;17.00;11.32;;;27.80;99.90;;;;;;5074716;28;20072;-66
2022/08/16 09:56:27;;;;;;;13.80;10.07;;;26.40;99.90;;;;;;5079025;28;20036;-67
2022/08/16 09:58:53;;;;;;;12.65;9.20;;;27.90;99.90;;;;;;5073850;28;20064;-67
2022/08/16 10:01:19;;;;;;;15.38;9.45;;;26.00;99.90;;;;;;5070456;28;20160;-67
2022/08/16 10:03:46;;;;;;;12.93;10.30;;;26.10;99.90;;;;;;5072287;28;20045;-67
2022/08/16 10:06:11;;;;;;;11.90;6.65;;;26.30;99.90;;;;;;5071989;28;20509;-67
2022/08/16 10:08:37;;;;;;;8.07;7.10;;;26.40;99.90;;;;;;5073696;28;20047;-67
2022/08/16 10:13:47;;;;;;;12.77;11.25;;;26.60;99.90;;;;;;5077805;28;20052;-67
2022/08/16 10:16:12;;;;;;;14.43;10.25;;;27.70;99.90;;;;;;5074217;28;20036;-67
2022/08/16 10:18:40;;;;;;;12.27;9.57;;;26.50;99.90;;;;;;5072009;28;20035;-67
2022/08/16 10:21:06;;;;;;;15.88;11.13;;;26.70;99.90;;;;;;5071632;28;20041;-67
2022/08/16 10:23:32;;;;;;;14.10;9.75;;;26.70;99.90;;;;;;5070627;28;20074;-67
2022/08/16 10:25:58;;;;;;;18.00;11.40;;;26.70;99.90;;;;;;5073597;28;20101;-70
2022/08/16 10:28:24;;;;;;;15.15;11.05;;;26.80;99.90;;;;;;5072275;28;20068;-66
2022/08/16 10:30:50;;;;;;;13.80;9.57;;;27.00;99.90;;;;;;5074714;28;20051;-66
2022/08/16 10:33:16;;;;;;;14.13;10.20;;;26.90;99.90;;;;;;5071978;28;20044;-67
2022/08/16 10:35:43;;;;;;;16.27;11.00;;;27.10;99.90;;;;;;5071545;28;20029;-66
2022/08/16 10:38:11;;;;;;;13.43;9.63;;;26.80;99.90;;;;;;5070345;28;20041;-67
2022/08/16 10:40:38;;;;;;;13.82;8.57;;;28.40;99.90;;;;;;5071887;28;20037;-67
2022/08/16 10:43:04;;;;;;;13.98;8.98;;;26.70;99.90;;;;;;5071862;28;20075;-68
2022/08/16 10:45:31;;;;;;;9.68;7.78;;;27.20;99.90;;;;;;5072947;28;20486;-66
2022/08/16 10:47:59;;;;;;;12.02;8.98;;;27.10;99.90;;;;;;5075847;28;20458;-67
2022/08/16 10:50:25;;;;;;;12.02;9.23;;;27.20;99.90;;;;;;5075606;28;20162;-67
2022/08/16 10:52:52;;;;;;;10.00;8.48;;;27.20;99.90;;;;;;5081022;28;20042;-67
2022/08/16 10:55:18;;;;;;;10.15;9.10;;;28.10;99.90;;;;;;5075849;28;20078;-67
2022/08/16 10:57:44;;;;;;;10.43;8.00;;;28.50;99.90;;;;;;5075367;28;20088;-67
2022/08/16 11:00:13;;;;;;;12.40;8.80;;;27.40;99.90;;;;;;5075405;28;20060;-67
2022/08/16 11:02:40;;;;;;;17.35;9.18;;;27.30;99.90;;;;;;5075566;28;20429;-66
2022/08/16 11:05:10;;;;;;;11.52;8.25;;;27.00;99.90;;;;;;5075143;28;20475;-67
2022/08/16 11:07:41;;;;;;;11.68;7.78;;;27.20;99.90;;;;;;5073974;28;20490;-67
2022/08/16 11:10:07;;;;;;;11.40;8.00;;;27.30;99.90;;;;;;5075559;28;20040;-67
2022/08/16 11:12:33;;;;;;;10.73;8.30;;;27.20;99.90;;;;;;5074111;28;20115;-67
2022/08/16 11:14:58;;;;;;;11.05;8.23;;;27.10;99.90;;;;;;5075361;28;20112;-67
2022/08/16 11:17:25;;;;;;;11.95;8.20;;;27.20;99.90;;;;;;5074186;28;20044;-66
2022/08/16 11:19:51;;;;;;;11.23;7.57;;;27.20;99.90;;;;;;5075564;28;20467;-68
2022/08/16 11:22:18;;;;;;;9.85;6.93;;;27.50;99.90;;;;;;5075479;28;20071;-66
2022/08/16 11:24:43;;;;;;;11.68;8.75;;;27.20;99.90;;;;;;5074562;28;20115;-66
2022/08/16 11:27:18;;;;;;;7.95;6.65;;;27.10;99.90;;;;;;5075183;28;20459;-67
2022/08/16 11:29:43;;;;;;;;;;;27.30;99.90;;;;;;5075615;28;20493;-67
2022/08/16 11:32:09;;;;;;;6.78;5.20;;;29.20;99.90;;;;;;5075223;28;20020;-66
2022/08/16 11:34:34;;;;;;;7.93;5.32;;;27.30;99.90;;;;;;5075264;28;20437;-67
2022/08/16 11:37:01;;;;;;;6.93;4.60;;;28.60;99.90;;;;;;5080565;28;20097;-66
2022/08/16 11:39:28;;;;;;;6.70;4.55;;;27.30;99.90;;;;;;5094381;28;20044;-67
2022/08/16 11:41:54;;;;;;;8.40;5.82;;;27.40;99.90;;;;;;5093856;28;20050;-67
2022/08/16 11:44:19;;;;;;;8.45;4.75;;;27.80;99.90;;;;;;5079584;28;20383;-67
2022/08/16 11:46:45;;;;;;;8.57;5.05;;;28.70;99.90;;;;;;5074729;28;20035;-67
2022/08/16 11:49:10;;;;;;;7.78;4.88;;;27.70;99.90;;;;;;5074823;28;20037;-67
2022/08/16 11:51:38;;;;;;;18.65;5.75;;;27.60;99.90;;;;;;5074790;28;20033;-66
2022/08/16 11:54:04;;;;;;;7.53;5.22;;;27.90;99.90;;;;;;5073935;28;20040;-66
2022/08/16 11:56:29;;;;;;;11.65;4.63;;;27.80;99.90;;;;;;5071827;28;20040;-67
2022/08/16 11:58:55;;;;;;;7.18;4.78;;;27.70;99.90;;;;;;5072437;28;20113;-68
2022/08/16 12:01:20;;;;;;;8.88;4.50;;;27.60;99.90;;;;;;5074117;28;20098;-67
2022/08/16 12:03:46;;;;;;;6.00;3.85;;;29.30;99.90;;;;;;5074351;28;20032;-67
2022/08/16 12:06:16;;;;;;;6.65;3.63;;;28.00;99.90;;;;;;5074294;28;20037;-67
2022/08/16 12:08:44;;;;;;;4.90;3.47;;;29.40;99.90;;;;;;5074139;28;20563;-68
2022/08/16 12:11:11;;;;;;;4.47;3.20;;;27.90;99.90;;;;;;5073841;28;20048;-67
2022/08/16 12:13:38;;;;;;;6.88;3.53;;;28.90;99.90;;;;;;5072793;28;20048;-67
2022/08/16 12:16:07;;;;;;;5.63;3.30;;;27.80;99.90;;;;;;5074048;28;20037;-67
2022/08/16 12:18:33;;;;;;;4.10;3.08;;;28.10;99.90;;;;;;5074113;28;20043;-67
2022/08/16 12:20:58;;;;;;;5.50;3.25;;;27.80;99.90;;;;;;5072999;28;20087;-67
2022/08/16 12:23:24;;;;;;;8.52;2.95;;;28.00;99.90;;;;;;5073750;28;20068;-67
2022/08/16 12:25:50;;;;;;;5.55;2.95;;;29.90;99.90;;;;;;5073939;28;20462;-67
2022/08/16 12:28:15;;;;;;;6.30;2.85;;;27.90;99.90;;;;;;5073696;28;20089;-67
2022/08/16 12:30:44;;;;;;;7.25;3.65;;;27.90;99.90;;;;;;5073856;28;20032;-67